createdAt,value
2019-02-07T00:00:40.599Z,14.40
2019-02-07T00:03:11.889Z,14.13
2019-02-07T00:05:43.077Z,13.97
2019-02-07T00:08:17.191Z,14.23
2019-02-07T00:10:48.602Z,15.20
2019-02-07T00:13:19.870Z,14.27
2019-02-07T00:15:52.192Z,14.83
2019-02-07T00:18:27.185Z,14.87
2019-02-07T00:20:58.690Z,15.57
2019-02-07T00:23:30.064Z,14.97
2019-02-07T00:26:01.283Z,14.40
2019-02-07T00:28:32.537Z,15.50
2019-02-07T00:31:03.778Z,15.00
2019-02-07T00:33:35.019Z,14.70
2019-02-07T00:36:07.810Z,13.60
2019-02-07T00:38:39.476Z,14.30
2019-02-07T00:41:10.752Z,13.67
2019-02-07T00:43:41.904Z,13.67
2019-02-07T00:46:13.508Z,14.43
2019-02-07T00:48:45.023Z,15.43
2019-02-07T00:51:16.388Z,12.87
2019-02-07T00:53:47.787Z,14.17
2019-02-07T00:56:19.121Z,15.23
2019-02-07T00:58:50.641Z,14.70
2019-02-07T01:01:21.797Z,15.07
2019-02-07T01:03:53.087Z,15.07
2019-02-07T01:06:24.270Z,15.77
2019-02-07T01:08:55.542Z,15.63
2019-02-07T01:11:27.329Z,16.27
2019-02-07T01:13:58.591Z,16.13
2019-02-07T01:16:29.864Z,16.03
2019-02-07T01:19:01.040Z,16.30
2019-02-07T01:21:32.366Z,15.33
2019-02-07T01:24:03.539Z,17.20
2019-02-07T01:26:34.949Z,15.73
2019-02-07T01:29:06.201Z,17.27
2019-02-07T01:31:37.515Z,16.07
2019-02-07T01:34:09.809Z,16.77
2019-02-07T01:36:41.016Z,17.10
2019-02-07T01:39:12.413Z,17.03
2019-02-07T01:41:43.765Z,17.57
2019-02-07T01:44:15.157Z,16.93
2019-02-07T01:46:46.476Z,17.23
2019-02-07T01:49:17.844Z,15.90
2019-02-07T01:51:49.098Z,17.17
2019-02-07T01:54:20.303Z,16.57
2019-02-07T01:56:51.541Z,17.03
2019-02-07T01:59:22.845Z,15.87
2019-02-07T02:01:54.250Z,17.47
2019-02-07T02:04:25.862Z,17.97
2019-02-07T02:06:57.209Z,16.37
2019-02-07T02:09:29.595Z,17.30
2019-02-07T02:12:00.857Z,16.50
2019-02-07T02:14:32.325Z,17.17
2019-02-07T02:17:03.672Z,16.40
2019-02-07T02:19:34.953Z,16.47
2019-02-07T02:22:06.185Z,15.47
2019-02-07T02:24:37.499Z,16.97
2019-02-07T02:27:08.740Z,16.23
2019-02-07T02:29:40.319Z,17.30
2019-02-07T02:32:11.740Z,15.87
2019-02-07T02:34:43.873Z,16.13
2019-02-07T02:37:15.330Z,16.57
2019-02-07T02:39:46.666Z,16.90
2019-02-07T02:42:18.338Z,15.83
2019-02-07T02:44:49.543Z,17.33
2019-02-07T02:47:20.764Z,16.30
2019-02-07T02:49:52.218Z,15.13
2019-02-07T02:52:23.397Z,15.53
2019-02-07T02:54:56.480Z,15.87
2019-02-07T02:57:29.324Z,17.30
2019-02-07T03:00:00.575Z,14.17
2019-02-07T03:02:45.214Z,13.83
2019-02-07T03:05:41.733Z,14.67
2019-02-07T03:08:30.485Z,15.20
2019-02-07T03:11:25.060Z,16.50
2019-02-07T03:14:13.978Z,16.17
2019-02-07T03:17:01.260Z,15.07
2019-02-07T03:19:54.231Z,15.70
2019-02-07T03:22:56.909Z,16.07
2019-02-07T03:25:50.075Z,15.43
2019-02-07T03:28:36.862Z,16.03
2019-02-07T03:31:21.523Z,16.00
2019-02-07T03:34:10.809Z,16.10
2019-02-07T03:36:59.929Z,16.37
2019-02-07T03:39:53.200Z,15.87
2019-02-07T03:42:43.373Z,15.87
2019-02-07T03:45:42.688Z,15.80
2019-02-07T03:48:32.027Z,15.60
2019-02-07T03:51:34.425Z,17.07
2019-02-07T03:54:30.789Z,14.67
2019-02-07T03:57:23.066Z,16.00
2019-02-07T04:00:12.110Z,14.90
2019-02-07T04:03:02.405Z,15.40
2019-02-07T04:05:56.716Z,15.47
2019-02-07T04:08:45.361Z,15.50
2019-02-07T04:11:34.339Z,14.93
2019-02-07T04:14:29.319Z,13.43
2019-02-07T04:17:11.379Z,13.97
2019-02-07T04:19:54.845Z,13.50
2019-02-07T04:22:43.893Z,13.53
2019-02-07T04:25:40.222Z,13.53
2019-02-07T04:28:42.843Z,13.73
2019-02-07T04:31:23.761Z,11.90
2019-02-07T04:34:32.075Z,12.50
2019-02-07T04:37:22.560Z,13.43
2019-02-07T04:40:24.777Z,12.60
2019-02-07T04:43:15.074Z,12.27
2019-02-07T04:46:26.389Z,12.93
2019-02-07T04:49:05.299Z,12.30
2019-02-07T04:51:49.945Z,12.23
2019-02-07T04:54:43.263Z,12.87
2019-02-07T04:57:24.191Z,12.37
2019-02-07T05:00:05.459Z,11.43
2019-02-07T05:03:00.228Z,12.27
2019-02-07T05:06:02.544Z,18.00
2019-02-07T05:08:39.816Z,14.40
2019-02-07T05:11:26.205Z,12.07
2019-02-07T05:14:09.939Z,11.50
2019-02-07T05:17:00.160Z,12.80
2019-02-07T05:19:50.658Z,11.10
2019-02-07T05:22:38.276Z,13.20
2019-02-07T05:25:37.584Z,11.57
2019-02-07T05:28:33.587Z,11.40
2019-02-07T05:31:27.137Z,14.43
2019-02-07T05:34:16.054Z,13.57
2019-02-07T05:37:18.811Z,11.90
2019-02-07T05:40:08.064Z,12.03
2019-02-07T05:42:47.091Z,12.93
2019-02-07T05:45:35.977Z,12.63
2019-02-07T05:48:28.927Z,11.73
2019-02-07T05:51:34.130Z,13.57
2019-02-07T05:54:24.755Z,37.30
2019-02-07T05:57:14.898Z,17.30
2019-02-07T06:00:16.139Z,13.07
2019-02-07T06:03:10.819Z,12.80
2019-02-07T06:06:10.031Z,12.60
2019-02-07T06:08:53.524Z,10.90
2019-02-07T06:11:42.595Z,11.77
2019-02-07T06:14:31.667Z,11.20
2019-02-07T06:17:24.949Z,11.97
2019-02-07T06:20:20.918Z,13.33
2019-02-07T06:23:18.015Z,12.33
2019-02-07T06:25:59.204Z,14.87
2019-02-07T06:28:58.471Z,13.73
2019-02-07T06:31:50.413Z,10.73
2019-02-07T06:34:40.713Z,12.63
2019-02-07T06:37:30.881Z,11.93
2019-02-07T06:40:39.118Z,11.83
2019-02-07T06:43:38.421Z,11.93
2019-02-07T06:46:18.676Z,11.33
2019-02-07T06:49:11.665Z,11.13
2019-02-07T06:52:00.059Z,10.83
2019-02-07T06:55:02.630Z,12.77
2019-02-07T06:57:46.862Z,12.43
2019-02-07T07:00:35.144Z,11.60
2019-02-07T07:03:16.462Z,11.10
2019-02-07T07:06:05.515Z,11.10
2019-02-07T07:08:59.225Z,11.10
2019-02-07T07:11:56.612Z,15.57
2019-02-07T07:14:36.426Z,11.70
2019-02-07T07:17:25.606Z,10.47
2019-02-07T07:20:15.165Z,10.70
2019-02-07T07:23:14.864Z,10.77
2019-02-07T07:26:03.862Z,10.93
2019-02-07T07:29:00.335Z,10.30
2019-02-07T07:31:56.886Z,10.23
2019-02-07T07:34:41.922Z,9.67
2019-02-07T07:37:50.501Z,9.93
2019-02-07T07:40:37.435Z,9.53
2019-02-07T07:43:30.323Z,9.43
2019-02-07T07:46:31.375Z,9.03
2019-02-07T07:49:20.248Z,9.13
2019-02-07T07:52:07.649Z,14.07
2019-02-07T07:55:00.852Z,10.90
2019-02-07T07:57:57.105Z,9.97
2019-02-07T08:00:52.612Z,10.23
2019-02-07T08:03:47.297Z,10.93
2019-02-07T08:06:49.522Z,9.07
2019-02-07T08:09:38.682Z,8.80
2019-02-07T08:12:28.312Z,9.13
2019-02-07T08:15:16.719Z,9.90
2019-02-07T08:18:15.960Z,9.87
2019-02-07T08:21:05.093Z,10.03
2019-02-07T08:24:01.075Z,8.97
2019-02-07T08:26:57.597Z,9.20
2019-02-07T08:29:53.827Z,9.60
2019-02-07T08:33:02.427Z,9.17
2019-02-07T08:35:50.549Z,14.73
2019-02-07T08:38:43.855Z,10.03
2019-02-07T08:41:32.677Z,8.40
2019-02-07T08:44:32.184Z,9.13
2019-02-07T08:47:31.304Z,8.60
2019-02-07T08:50:11.081Z,7.93
2019-02-07T08:53:01.248Z,8.17
2019-02-07T08:56:03.457Z,7.83
2019-02-07T08:58:49.984Z,7.90
2019-02-07T09:01:42.928Z,7.80
2019-02-07T09:04:31.680Z,7.70
2019-02-07T09:07:17.676Z,7.40
2019-02-07T09:10:03.281Z,6.67
2019-02-07T09:12:57.694Z,7.87
2019-02-07T09:15:44.777Z,7.80
2019-02-07T09:18:40.805Z,8.77
2019-02-07T09:21:42.966Z,8.00
2019-02-07T09:24:27.822Z,8.03
2019-02-07T09:27:20.415Z,8.33
2019-02-07T09:30:25.757Z,8.10
2019-02-07T09:33:27.641Z,8.23
2019-02-07T09:36:18.423Z,8.03
2019-02-07T09:39:07.823Z,7.93
2019-02-07T09:41:56.846Z,7.73
2019-02-07T09:44:46.213Z,7.97
2019-02-07T09:47:36.542Z,8.13
2019-02-07T09:50:18.616Z,7.67
2019-02-07T09:53:04.788Z,8.63
2019-02-07T09:55:53.841Z,7.77
2019-02-07T09:58:46.234Z,7.03
2019-02-07T10:01:42.559Z,7.60
2019-02-07T10:04:44.808Z,7.27
2019-02-07T10:07:40.729Z,7.73
2019-02-07T10:10:22.155Z,7.33
2019-02-07T10:13:15.247Z,8.07
2019-02-07T10:16:23.515Z,7.13
2019-02-07T10:19:22.535Z,7.97
2019-02-07T10:22:11.485Z,10.70
2019-02-07T10:25:00.374Z,7.93
2019-02-07T10:27:58.774Z,7.30
2019-02-07T10:30:49.235Z,7.20
2019-02-07T10:33:44.675Z,7.10
2019-02-07T10:36:41.272Z,7.17
2019-02-07T10:39:32.536Z,7.90
2019-02-07T10:42:19.790Z,6.77
2019-02-07T10:45:07.288Z,7.00
2019-02-07T10:48:09.655Z,7.90
2019-02-07T10:51:02.946Z,7.70
2019-02-07T10:53:55.908Z,7.57
2019-02-07T10:57:04.505Z,7.90
2019-02-07T10:59:53.570Z,7.53
2019-02-07T11:02:43.714Z,7.53
2019-02-07T11:05:39.171Z,7.57
2019-02-07T11:08:44.491Z,7.47
2019-02-07T11:11:37.705Z,7.97
2019-02-07T11:14:46.919Z,7.63
2019-02-07T11:17:46.450Z,8.63
2019-02-07T11:20:55.580Z,7.73
2019-02-07T11:23:44.438Z,8.53
2019-02-07T11:26:33.686Z,8.57
2019-02-07T11:29:27.630Z,8.27
2019-02-07T11:32:24.093Z,8.73
2019-02-07T11:35:13.134Z,9.40
2019-02-07T11:38:18.525Z,8.80
2019-02-07T11:41:26.892Z,9.17
2019-02-07T11:44:20.630Z,9.17
2019-02-07T11:47:11.214Z,8.70
2019-02-07T11:49:57.296Z,9.43
2019-02-07T11:52:46.135Z,9.70
2019-02-07T11:55:28.247Z,8.93
2019-02-07T11:58:18.559Z,9.57
2019-02-07T12:01:12.033Z,9.60
2019-02-07T12:04:08.153Z,8.77
2019-02-07T12:06:57.130Z,10.10
2019-02-07T12:09:54.385Z,9.33
2019-02-07T12:12:43.563Z,9.80
2019-02-07T12:15:32.874Z,9.93
2019-02-07T12:18:26.371Z,11.27
2019-02-07T12:21:19.500Z,10.27
2019-02-07T12:24:08.767Z,11.10
2019-02-07T12:26:55.803Z,10.40
2019-02-07T12:29:49.141Z,11.63
2019-02-07T12:32:40.557Z,11.07
2019-02-07T12:35:37.247Z,10.47
2019-02-07T12:38:26.617Z,12.93
2019-02-07T12:41:19.362Z,11.23
2019-02-07T12:44:09.489Z,10.07
2019-02-07T12:46:58.320Z,11.27
2019-02-07T12:49:48.499Z,11.40
2019-02-07T12:52:31.610Z,11.50
2019-02-07T12:55:26.672Z,11.93
2019-02-07T12:58:14.471Z,11.37
2019-02-07T13:01:00.827Z,12.37
2019-02-07T13:03:45.493Z,12.57
2019-02-07T13:06:34.573Z,12.67
2019-02-07T13:09:38.214Z,11.27
2019-02-07T13:12:25.085Z,12.63
2019-02-07T13:15:06.976Z,11.37
2019-02-07T13:17:52.234Z,10.73
2019-02-07T13:20:34.303Z,30.13
2019-02-07T13:23:23.321Z,16.90
2019-02-07T13:26:03.160Z,12.10
2019-02-07T13:28:56.431Z,12.37
2019-02-07T13:31:46.441Z,12.50
2019-02-07T13:34:34.229Z,11.03
2019-02-07T13:37:30.549Z,10.53
2019-02-07T13:40:22.751Z,11.60
2019-02-07T13:43:11.935Z,11.73
2019-02-07T13:46:00.929Z,11.77
2019-02-07T13:48:49.859Z,12.27
2019-02-07T13:51:38.782Z,11.60
2019-02-07T13:54:38.444Z,12.30
2019-02-07T13:57:25.262Z,12.63
2019-02-07T14:00:20.152Z,12.40
2019-02-07T14:03:09.156Z,11.57
2019-02-07T14:05:55.514Z,11.23
2019-02-07T14:08:44.352Z,12.83
2019-02-07T14:11:37.283Z,12.47
2019-02-07T14:14:15.604Z,11.13
2019-02-07T14:16:58.345Z,10.83
2019-02-07T14:20:03.284Z,11.97
2019-02-07T14:22:46.612Z,11.77
2019-02-07T14:25:39.534Z,12.03
2019-02-07T14:28:34.954Z,12.40
2019-02-07T14:31:25.349Z,12.20
2019-02-07T14:34:18.709Z,11.83
2019-02-07T14:37:00.930Z,12.77
2019-02-07T14:39:49.822Z,12.67
2019-02-07T14:42:30.905Z,11.10
2019-02-07T14:45:07.683Z,11.87
2019-02-07T14:47:38.862Z,12.47
2019-02-07T14:50:14.801Z,11.60
2019-02-07T14:52:44.342Z,12.97
2019-02-07T14:55:15.554Z,12.70
2019-02-07T14:57:46.768Z,12.77
2019-02-07T15:00:21.430Z,12.60
2019-02-07T15:02:52.655Z,13.23
2019-02-07T15:05:24.007Z,13.17
2019-02-07T15:07:55.231Z,12.17
2019-02-07T15:10:26.474Z,12.67
2019-02-07T15:12:57.697Z,13.83
2019-02-07T15:15:28.931Z,14.00
2019-02-07T15:18:00.199Z,16.37
2019-02-07T15:20:31.499Z,13.97
2019-02-07T15:23:03.113Z,13.60
2019-02-07T15:25:34.642Z,14.10
2019-02-07T15:28:05.857Z,13.77
2019-02-07T15:30:37.104Z,13.50
2019-02-07T15:33:08.406Z,14.20
2019-02-07T15:35:44.716Z,13.90
2019-02-07T15:38:16.063Z,13.77
2019-02-07T15:40:47.529Z,14.67
2019-02-07T15:43:18.756Z,14.27
2019-02-07T15:45:50.096Z,15.20
2019-02-07T15:48:21.655Z,18.23
2019-02-07T15:50:52.937Z,13.93
2019-02-07T15:53:24.136Z,12.90
2019-02-07T15:55:55.516Z,13.27
2019-02-07T15:58:51.789Z,15.37
2019-02-07T16:01:42.219Z,14.37
2019-02-07T16:04:17.208Z,15.17
2019-02-07T16:06:48.702Z,14.50
2019-02-07T16:09:20.221Z,16.13
2019-02-07T16:11:51.961Z,15.93
2019-02-07T16:14:23.558Z,15.13
2019-02-07T16:16:54.809Z,15.17
2019-02-07T16:19:26.062Z,16.77
2019-02-07T16:21:57.257Z,16.07
2019-02-07T16:24:28.570Z,16.47
2019-02-07T16:26:59.770Z,16.20
2019-02-07T16:29:31.325Z,15.70
2019-02-07T16:32:03.612Z,15.83
2019-02-07T16:34:34.856Z,15.60
2019-02-07T16:37:06.068Z,15.30
2019-02-07T16:39:37.322Z,16.27
2019-02-07T16:42:08.578Z,15.90
2019-02-07T16:44:39.795Z,16.60
2019-02-07T16:47:11.065Z,15.23
2019-02-07T16:49:42.353Z,15.63
2019-02-07T16:52:13.590Z,16.80
2019-02-07T16:54:44.929Z,16.07
2019-02-07T16:57:16.631Z,15.30
2019-02-07T16:59:47.970Z,13.73
2019-02-07T17:02:19.276Z,14.53
2019-02-07T17:04:50.516Z,15.23
2019-02-07T17:07:21.808Z,15.33
2019-02-07T17:09:53.670Z,15.43
2019-02-07T17:12:24.876Z,16.20
2019-02-07T17:14:57.113Z,15.57
2019-02-07T17:17:28.322Z,13.83
2019-02-07T17:19:59.504Z,14.20
2019-02-07T17:22:31.364Z,14.67
2019-02-07T17:25:02.631Z,15.00
2019-02-07T17:27:33.945Z,13.33
2019-02-07T17:30:11.001Z,15.33
2019-02-07T17:32:42.399Z,14.53
2019-02-07T17:35:16.219Z,15.57
2019-02-07T17:37:47.462Z,15.33
2019-02-07T17:40:20.216Z,16.00
2019-02-07T17:42:52.688Z,16.73
2019-02-07T17:45:25.110Z,14.17
2019-02-07T17:47:56.658Z,14.73
2019-02-07T17:50:31.238Z,15.23
2019-02-07T17:53:05.038Z,15.53
2019-02-07T17:55:37.051Z,14.10
2019-02-07T17:58:08.915Z,15.73
2019-02-07T18:00:51.520Z,14.73
2019-02-07T18:03:22.778Z,14.97
2019-02-07T18:05:54.103Z,15.53
2019-02-07T18:08:25.431Z,14.40
2019-02-07T18:10:56.805Z,13.73
2019-02-07T18:13:28.140Z,14.63
2019-02-07T18:15:59.528Z,15.23
2019-02-07T18:18:31.025Z,13.13
2019-02-07T18:21:02.910Z,14.43
2019-02-07T18:23:34.796Z,13.83
2019-02-07T18:26:06.238Z,15.47
2019-02-07T18:28:37.931Z,13.83
2019-02-07T18:31:09.380Z,13.60
2019-02-07T18:33:41.239Z,13.20
2019-02-07T18:36:14.747Z,14.53
2019-02-07T18:38:46.139Z,14.70
2019-02-07T18:41:17.593Z,14.67
2019-02-07T18:43:48.802Z,13.93
2019-02-07T18:46:20.021Z,14.30
2019-02-07T18:48:51.576Z,14.10
2019-02-07T18:51:22.897Z,14.60
2019-02-07T18:53:54.298Z,14.33
2019-02-07T18:56:25.641Z,13.27
2019-02-07T18:58:57.940Z,13.30
2019-02-07T19:01:29.469Z,13.20
2019-02-07T19:04:00.721Z,12.37
2019-02-07T19:06:33.412Z,14.13
2019-02-07T19:09:07.792Z,12.87
2019-02-07T19:11:39.068Z,11.97
2019-02-07T19:14:10.726Z,12.67
2019-02-07T19:16:42.221Z,13.20
2019-02-07T19:19:13.713Z,13.40
2019-02-07T19:21:56.477Z,12.80
2019-02-07T19:24:18.670Z,12.80
2019-02-07T19:26:50.188Z,13.57
2019-02-07T19:29:21.769Z,14.13
2019-02-07T19:31:53.276Z,13.10
2019-02-07T19:34:24.606Z,14.07
2019-02-07T19:36:55.966Z,13.93
2019-02-07T19:39:27.276Z,13.87
2019-02-07T19:41:58.528Z,12.90
2019-02-07T19:44:29.856Z,13.73
2019-02-07T19:47:01.090Z,14.73
2019-02-07T19:49:32.246Z,13.07
2019-02-07T19:52:08.156Z,13.13
2019-02-07T19:54:37.491Z,14.87
2019-02-07T19:57:08.732Z,13.23
2019-02-07T19:59:40.003Z,13.53
2019-02-07T20:02:11.223Z,15.03
2019-02-07T20:04:42.755Z,14.07
2019-02-07T20:07:14.238Z,13.93
2019-02-07T20:09:45.453Z,13.90
2019-02-07T20:12:16.702Z,11.77
2019-02-07T20:14:48.119Z,12.47
2019-02-07T20:17:19.335Z,13.03
2019-02-07T20:19:52.150Z,12.03
2019-02-07T20:22:23.425Z,13.57
2019-02-07T20:24:54.831Z,12.57
2019-02-07T20:27:25.955Z,12.17
2019-02-07T20:29:57.316Z,10.97
2019-02-07T20:32:28.494Z,11.10
2019-02-07T20:35:00.002Z,11.93
2019-02-07T20:37:31.282Z,10.53
2019-02-07T20:40:02.449Z,11.90
2019-02-07T20:42:34.726Z,12.10
2019-02-07T20:45:07.854Z,11.63
2019-02-07T20:47:40.091Z,12.03
2019-02-07T20:50:16.116Z,10.77
2019-02-07T20:52:48.621Z,11.37
2019-02-07T20:55:20.525Z,11.80
2019-02-07T20:57:52.156Z,12.73
2019-02-07T21:00:26.016Z,10.67
2019-02-07T21:02:57.335Z,12.47
2019-02-07T21:05:29.783Z,11.77
2019-02-07T21:08:02.128Z,12.10
2019-02-07T21:10:35.453Z,11.67
2019-02-07T21:13:08.179Z,11.43
2019-02-07T21:15:39.713Z,11.63
2019-02-07T21:18:10.945Z,11.20
2019-02-07T21:20:42.362Z,11.90
2019-02-07T21:23:13.687Z,11.53
2019-02-07T21:25:47.508Z,11.27
2019-02-07T21:28:18.824Z,12.33
2019-02-07T21:30:50.046Z,12.00
2019-02-07T21:33:21.244Z,11.63
2019-02-07T21:35:52.477Z,11.67
2019-02-07T21:38:24.745Z,11.83
2019-02-07T21:40:57.456Z,12.47
2019-02-07T21:43:29.241Z,13.20
2019-02-07T21:46:00.479Z,13.97
2019-02-07T21:48:31.695Z,12.03
2019-02-07T21:51:02.913Z,12.50
2019-02-07T21:53:34.228Z,12.07
2019-02-07T21:56:05.891Z,13.80
2019-02-07T21:58:37.159Z,12.47
2019-02-07T22:01:08.444Z,13.77
2019-02-07T22:03:39.680Z,13.77
2019-02-07T22:06:10.878Z,13.97
2019-02-07T22:08:42.239Z,12.73
2019-02-07T22:11:13.474Z,13.50
2019-02-07T22:13:44.759Z,12.90
2019-02-07T22:16:15.947Z,14.50
2019-02-07T22:18:47.197Z,13.40
2019-02-07T22:21:18.683Z,14.00
2019-02-07T22:23:49.929Z,14.87
2019-02-07T22:26:21.144Z,14.20
2019-02-07T22:28:52.359Z,12.97
2019-02-07T22:31:23.716Z,13.47
2019-02-07T22:33:55.289Z,13.63
2019-02-07T22:36:26.551Z,13.63
2019-02-07T22:38:57.754Z,11.57
2019-02-07T22:41:29.020Z,11.73
2019-02-07T22:44:00.230Z,11.67
2019-02-07T22:46:31.734Z,11.97
2019-02-07T22:49:03.109Z,12.07
2019-02-07T22:51:34.401Z,12.10
2019-02-07T22:54:05.780Z,12.53
2019-02-07T22:56:45.070Z,12.87
2019-02-07T22:59:09.911Z,10.63
2019-02-07T23:01:50.554Z,10.97
2019-02-07T23:04:23.101Z,11.60
2019-02-07T23:06:54.350Z,12.03
2019-02-07T23:09:25.569Z,11.60
2019-02-07T23:11:57.076Z,11.37
2019-02-07T23:14:28.596Z,12.63
2019-02-07T23:17:02.980Z,11.10
2019-02-07T23:19:34.315Z,13.40
2019-02-07T23:22:05.776Z,11.50
2019-02-07T23:24:37.577Z,11.33
2019-02-07T23:27:08.885Z,11.03
2019-02-07T23:29:40.316Z,11.10
2019-02-07T23:32:11.499Z,11.00
2019-02-07T23:34:42.719Z,10.60
2019-02-07T23:37:14.721Z,11.53
2019-02-07T23:39:46.196Z,12.47
2019-02-07T23:42:18.546Z,12.10
2019-02-07T23:44:49.785Z,12.90
2019-02-07T23:47:21.034Z,13.00
2019-02-07T23:49:52.444Z,14.47
2019-02-07T23:52:23.691Z,11.97
2019-02-07T23:54:54.941Z,12.93
2019-02-07T23:57:26.136Z,12.27
2019-02-07T23:59:57.340Z,13.47
